Time;durP1;ratioP1;P1;durP2;ratioP2;P2;SDS_P1;SDS_P2;PMS_P1;PMS_P2;Temp;Humidity;BMP_temperature;BMP_pressure;BME280_temperature;BME280_humidity;BME280_pressure;Samples;Min_cycle;Max_cycle;Signal;HPM_P1;HPM_P2
2023/12/04 00:00:08;;;;;;;8.23;4.82;;;22.60;39.10;;;;;;6128657;28;80862;-58
2023/12/04 00:03:14;;;;;;;8.13;5.05;;;22.60;38.70;;;;;;6130118;28;83138;-57
2023/12/04 00:06:15;;;;;;;8.77;5.13;;;22.60;38.90;;;;;;6130479;28;81551;-57
2023/12/04 00:09:16;;;;;;;6.75;3.90;;;22.60;37.60;;;;;;6124183;28;80919;-59
2023/12/04 00:12:16;;;;;;;7.38;4.70;;;22.60;39.10;;;;;;6134204;28;82919;-59
2023/12/04 00:15:17;;;;;;;6.88;4.70;;;22.60;38.10;;;;;;6137989;28;80995;-69
2023/12/04 00:18:17;;;;;;;10.45;5.50;;;22.60;38.30;;;;;;6129637;28;82830;-67
2023/12/04 00:21:18;;;;;;;7.78;4.85;;;22.50;38.40;;;;;;6133861;28;81689;-68
2023/12/04 00:24:18;;;;;;;7.75;4.70;;;22.50;38.20;;;;;;6135803;28;81632;-66
2023/12/04 00:27:20;;;;;;;7.63;5.07;;;22.50;38.60;;;;;;6132798;28;84492;-69
2023/12/04 00:30:21;;;;;;;7.10;4.30;;;22.60;38.30;;;;;;6141751;28;80589;-68
2023/12/04 00:33:21;;;;;;;7.03;4.38;;;22.60;37.90;;;;;;6144425;28;80974;-59
2023/12/04 00:36:22;;;;;;;6.55;4.15;;;22.60;38.00;;;;;;6147493;28;82629;-58
2023/12/04 00:39:22;;;;;;;6.55;4.20;;;22.60;38.00;;;;;;6150878;28;81191;-58
2023/12/04 00:42:23;;;;;;;6.85;4.20;;;22.60;38.00;;;;;;6152780;28;81356;-57
2023/12/04 00:45:24;;;;;;;7.75;4.80;;;22.60;37.90;;;;;;6152417;28;83446;-58
2023/12/04 00:48:24;;;;;;;7.97;4.60;;;22.60;38.00;;;;;;6152634;28;81472;-57
2023/12/04 00:51:26;;;;;;;8.35;5.13;;;22.60;37.90;;;;;;6150853;28;82481;-67
2023/12/04 00:54:26;;;;;;;7.78;4.30;;;22.60;38.00;;;;;;6147707;28;81126;-67
2023/12/04 00:57:27;;;;;;;7.45;4.40;;;22.50;37.70;;;;;;6161896;28;80505;-66
2023/12/04 01:00:27;;;;;;;7.25;4.28;;;22.50;37.70;;;;;;6160856;28;80647;-66
2023/12/04 01:03:28;;;;;;;6.70;4.40;;;22.60;37.80;;;;;;6149180;28;81320;-67
2023/12/04 01:06:29;;;;;;;7.25;4.55;;;22.60;37.60;;;;;;6149368;28;81177;-66
2023/12/04 01:09:29;;;;;;;6.93;4.25;;;22.60;37.70;;;;;;6149789;28;82635;-66
2023/12/04 01:12:30;;;;;;;7.95;4.53;;;22.50;37.80;;;;;;6149537;28;80333;-66
2023/12/04 01:15:30;;;;;;;6.90;4.75;;;22.60;38.00;;;;;;6150372;28;80457;-67
2023/12/04 01:18:31;;;;;;;6.47;3.92;;;22.50;38.00;;;;;;6151766;28;80396;-66
2023/12/04 01:21:31;;;;;;;10.20;4.35;;;22.50;37.90;;;;;;6150915;28;80714;-65
2023/12/04 01:24:31;;;;;;;7.70;4.60;;;22.50;37.70;;;;;;6151260;28;80853;-67
2023/12/04 01:27:35;;;;;;;6.88;4.00;;;22.40;37.80;;;;;;6152577;28;81949;-56
2023/12/04 01:30:35;;;;;;;6.82;4.60;;;22.40;37.60;;;;;;6149775;28;80376;-68
2023/12/04 01:33:36;;;;;;;7.45;4.57;;;22.50;37.70;;;;;;6152193;28;80950;-67
2023/12/04 01:36:37;;;;;;;7.22;4.05;;;22.40;37.50;;;;;;6149284;28;83675;-67
2023/12/04 01:39:37;;;;;;;6.03;3.80;;;22.40;37.70;;;;;;6148672;28;81263;-66
2023/12/04 01:42:38;;;;;;;6.93;4.18;;;22.40;37.60;;;;;;6149542;28;82652;-68
2023/12/04 01:45:38;;;;;;;6.72;4.28;;;22.40;38.10;;;;;;6148366;28;80778;-67
2023/12/04 01:48:38;;;;;;;6.70;4.18;;;22.40;38.30;;;;;;6148532;28;82241;-65
2023/12/04 01:51:39;;;;;;;7.50;4.28;;;22.40;38.50;;;;;;6146532;28;80641;-68
2023/12/04 01:54:39;;;;;;;6.10;4.13;;;22.40;38.70;;;;;;6146117;28;80371;-68
2023/12/04 01:57:40;;;;;;;7.13;4.18;;;22.40;38.60;;;;;;6150683;28;80950;-68
2023/12/04 02:00:40;;;;;;;8.75;4.15;;;22.40;38.70;;;;;;6148419;28;81675;-66
2023/12/04 02:03:41;;;;;;;6.15;3.60;;;22.40;38.80;;;;;;6148436;28;81613;-67
2023/12/04 02:06:41;;;;;;;4.88;3.50;;;22.40;39.70;;;;;;6143977;28;80801;-67
2023/12/04 02:09:42;;;;;;;7.20;4.00;;;22.40;38.80;;;;;;6150769;28;81515;-67
2023/12/04 02:12:42;;;;;;;7.50;4.25;;;22.40;38.80;;;;;;6151804;28;80353;-66
2023/12/04 02:15:43;;;;;;;6.65;4.07;;;22.40;38.60;;;;;;6137613;28;80392;-68
2023/12/04 02:18:43;;;;;;;5.90;3.85;;;22.40;38.70;;;;;;6151389;28;81943;-68
2023/12/04 02:21:44;;;;;;;5.95;3.47;;;22.40;38.40;;;;;;6142958;28;81228;-66
2023/12/04 02:24:44;;;;;;;6.05;4.75;;;22.40;38.70;;;;;;6151117;28;87833;-59
2023/12/04 02:27:45;;;;;;;5.65;3.67;;;22.30;38.50;;;;;;6151146;28;80395;-59
2023/12/04 02:30:46;;;;;;;6.03;3.50;;;22.40;38.50;;;;;;6139998;28;80516;-59
2023/12/04 02:33:46;;;;;;;6.95;4.00;;;22.40;38.40;;;;;;6151211;28;80467;-59
2023/12/04 02:36:47;;;;;;;7.50;3.97;;;22.40;38.70;;;;;;6142206;28;80903;-58
2023/12/04 02:39:49;;;;;;;6.80;4.18;;;22.40;38.70;;;;;;6145082;28;80613;-59
2023/12/04 02:42:49;;;;;;;5.32;3.47;;;22.40;38.80;;;;;;6146928;28;83218;-61
2023/12/04 02:45:50;;;;;;;4.40;3.08;;;22.30;39.00;;;;;;6147690;28;83201;-62
2023/12/04 02:48:50;;;;;;;7.82;3.08;;;22.40;40.00;;;;;;6148974;28;80517;-61
2023/12/04 02:51:51;;;;;;;5.43;3.38;;;22.40;39.30;;;;;;6145330;28;80405;-61
2023/12/04 02:54:51;;;;;;;6.78;3.65;;;22.40;39.50;;;;;;6146367;28;80957;-61
2023/12/04 02:57:52;;;;;;;6.40;3.20;;;22.40;39.40;;;;;;6162848;28;80443;-62
2023/12/04 03:00:52;;;;;;;5.32;3.08;;;22.40;39.70;;;;;;6151286;28;81031;-56
2023/12/04 03:03:53;;;;;;;5.20;3.45;;;22.40;39.30;;;;;;6149382;28;80307;-59
2023/12/04 03:06:53;;;;;;;6.50;3.33;;;22.40;39.30;;;;;;6149834;28;81976;-58
2023/12/04 03:09:54;;;;;;;4.50;3.20;;;22.40;39.40;;;;;;6149586;28;80483;-57
2023/12/04 03:12:54;;;;;;;5.95;3.65;;;22.40;39.50;;;;;;6150531;28;80594;-58
2023/12/04 03:15:55;;;;;;;5.25;3.28;;;22.30;39.50;;;;;;6150726;28;80450;-58
2023/12/04 03:18:55;;;;;;;5.03;3.50;;;22.30;39.80;;;;;;6146856;28;80446;-58
2023/12/04 03:21:56;;;;;;;5.25;3.35;;;22.30;39.90;;;;;;6138922;28;80239;-59
2023/12/04 03:24:56;;;;;;;6.45;3.15;;;22.30;39.80;;;;;;6163225;28;80956;-58
2023/12/04 03:27:57;;;;;;;5.03;3.47;;;22.30;39.60;;;;;;6161855;28;80374;-58
2023/12/04 03:30:57;;;;;;;5.35;3.40;;;22.30;40.40;;;;;;6139995;28;80289;-59
2023/12/04 03:33:58;;;;;;;6.03;3.67;;;22.30;39.50;;;;;;6149595;28;80914;-57
2023/12/04 03:36:58;;;;;;;6.85;3.88;;;22.30;39.70;;;;;;6143407;28;80251;-68
2023/12/04 03:39:59;;;;;;;5.45;3.30;;;22.30;39.60;;;;;;6164897;28;80246;-66
2023/12/04 03:42:59;;;;;;;5.85;3.60;;;22.30;39.40;;;;;;6161317;28;81124;-66
2023/12/04 03:46:00;;;;;;;6.43;4.22;;;22.30;39.50;;;;;;6155584;28;80412;-66
2023/12/04 03:49:00;;;;;;;5.35;3.38;;;22.30;39.20;;;;;;6155172;28;80817;-66
2023/12/04 03:52:01;;;;;;;6.47;3.60;;;22.20;39.00;;;;;;6154736;28;80318;-70
2023/12/04 03:55:01;;;;;;;5.25;3.63;;;22.30;39.30;;;;;;6154312;28;80513;-59
2023/12/04 03:58:02;;;;;;;6.50;3.92;;;22.20;39.00;;;;;;6153414;28;80446;-59
2023/12/04 04:01:02;;;;;;;7.13;3.88;;;22.30;38.60;;;;;;6153265;28;80417;-59
2023/12/04 04:04:03;;;;;;;5.30;3.58;;;22.30;38.60;;;;;;6151977;28;80692;-59
2023/12/04 04:07:03;;;;;;;8.25;4.63;;;22.30;38.80;;;;;;6151991;28;80218;-61
2023/12/04 04:10:04;;;;;;;6.32;4.05;;;22.30;38.70;;;;;;6153230;28;81282;-58
2023/12/04 04:13:04;;;;;;;5.20;3.67;;;22.30;38.70;;;;;;6150710;28;81758;-68
2023/12/04 04:16:05;;;;;;;6.50;4.03;;;22.30;38.20;;;;;;6147801;28;81171;-66
2023/12/04 04:19:05;;;;;;;8.98;4.57;;;22.40;37.80;;;;;;6149979;28;80585;-64
2023/12/04 04:22:06;;;;;;;7.03;4.47;;;22.40;37.70;;;;;;6145258;28;80947;-63
2023/12/04 04:25:06;;;;;;;5.88;3.78;;;22.50;37.50;;;;;;6154251;28;80363;-64
2023/12/04 04:28:07;;;;;;;5.95;3.97;;;22.50;37.40;;;;;;6154429;28;81762;-63
2023/12/04 04:31:07;;;;;;;7.22;4.22;;;22.60;37.40;;;;;;6145403;28;80569;-67
2023/12/04 04:34:08;;;;;;;7.03;4.07;;;22.60;37.50;;;;;;6153315;28;80633;-54
2023/12/04 04:37:08;;;;;;;7.00;4.15;;;22.70;37.50;;;;;;6142008;28;80107;-54
2023/12/04 04:40:09;;;;;;;10.07;4.43;;;22.70;37.30;;;;;;6167129;28;80911;-59
2023/12/04 04:43:09;;;;;;;7.43;4.45;;;22.70;37.50;;;;;;6160793;28;81161;-57
2023/12/04 04:46:10;;;;;;;7.03;4.03;;;22.80;37.70;;;;;;6151599;28;83718;-58
2023/12/04 04:49:10;;;;;;;6.93;4.20;;;22.80;37.80;;;;;;6151344;28;80902;-57
2023/12/04 04:52:11;;;;;;;8.55;4.70;;;22.80;37.70;;;;;;6150714;28;80252;-59
2023/12/04 04:55:11;;;;;;;7.40;4.60;;;22.90;37.20;;;;;;6150655;28;80356;-57
2023/12/04 04:58:12;;;;;;;7.40;4.93;;;22.90;37.00;;;;;;6149357;28;80156;-60
2023/12/04 05:01:12;;;;;;;8.55;4.30;;;22.90;37.00;;;;;;6142903;28;80947;-59
2023/12/04 05:04:13;;;;;;;10.20;4.35;;;22.90;37.40;;;;;;6152835;28;80292;-60
2023/12/04 05:07:13;;;;;;;6.78;4.85;;;22.90;37.60;;;;;;6168748;28;80492;-59
2023/12/04 05:10:14;;;;;;;6.72;4.10;;;22.90;37.70;;;;;;6166676;28;81458;-60
2023/12/04 05:13:14;;;;;;;5.70;3.60;;;22.90;38.10;;;;;;6176300;28;81254;-60
2023/12/04 05:16:15;;;;;;;7.25;3.97;;;23.00;37.70;;;;;;6177479;28;82399;-59
2023/12/04 05:19:15;;;;;;;5.68;3.47;;;23.00;38.10;;;;;;6175649;28;80840;-59
2023/12/04 05:22:16;;;;;;;10.80;4.15;;;23.00;38.00;;;;;;6160897;28;80308;-63
2023/12/04 05:25:16;;;;;;;5.63;3.88;;;23.00;38.50;;;;;;6168123;28;82643;-65
2023/12/04 05:28:17;;;;;;;14.48;4.20;;;23.00;38.70;;;;;;6171918;28;81594;-63
2023/12/04 05:31:17;;;;;;;8.10;4.60;;;23.00;38.70;;;;;;6176553;28;80775;-59
2023/12/04 05:34:18;;;;;;;5.82;3.85;;;23.00;38.30;;;;;;6173144;28;80916;-61
2023/12/04 05:37:18;;;;;;;6.72;4.20;;;23.10;38.10;;;;;;6175463;28;80284;-60
2023/12/04 05:40:19;;;;;;;9.32;3.80;;;23.10;38.10;;;;;;6176766;28;80316;-60
2023/12/04 05:43:19;;;;;;;10.60;4.72;;;23.10;38.20;;;;;;6176802;28;80430;-61
2023/12/04 05:46:20;;;;;;;7.32;3.75;;;23.10;38.30;;;;;;6174712;28;80442;-62
2023/12/04 05:49:21;;;;;;;6.30;4.28;;;23.10;38.30;;;;;;6165291;28;80344;-61
2023/12/04 05:52:22;;;;;;;9.90;4.25;;;23.10;37.80;;;;;;6174037;28;81002;-60
2023/12/04 05:55:22;;;;;;;5.22;3.45;;;23.10;37.70;;;;;;6172880;28;81354;-62
2023/12/04 05:58:23;;;;;;;6.00;3.80;;;23.10;37.50;;;;;;6170576;28;81023;-61
2023/12/04 06:01:23;;;;;;;8.32;4.00;;;23.00;37.10;;;;;;6174053;28;80381;-61
2023/12/04 06:04:24;;;;;;;5.60;3.60;;;23.00;37.30;;;;;;6161441;28;81140;-57
2023/12/04 06:07:24;;;;;;;5.95;3.85;;;23.00;36.90;;;;;;6172085;28;81274;-59
2023/12/04 06:10:25;;;;;;;8.55;4.70;;;23.00;37.30;;;;;;6176345;28;81147;-58
2023/12/04 06:13:25;;;;;;;5.05;3.45;;;23.00;37.40;;;;;;6172772;28;82825;-61
2023/12/04 06:16:26;;;;;;;8.27;4.35;;;23.00;37.40;;;;;;6174364;28;80538;-60
2023/12/04 06:19:26;;;;;;;6.35;4.22;;;23.00;37.40;;;;;;6169854;28;82516;-61
2023/12/04 06:22:27;;;;;;;6.50;4.03;;;23.00;37.20;;;;;;6176678;28;80805;-60
2023/12/04 06:25:27;;;;;;;5.90;3.90;;;22.90;37.00;;;;;;6174577;28;81995;-60
2023/12/04 06:28:28;;;;;;;5.28;3.45;;;22.90;37.00;;;;;;6167869;28;80744;-60
2023/12/04 06:31:28;;;;;;;6.75;3.97;;;22.90;36.90;;;;;;6169217;28;81651;-62
2023/12/04 06:34:29;;;;;;;6.18;3.85;;;22.90;36.90;;;;;;6169018;28;80667;-62
2023/12/04 06:37:29;;;;;;;5.78;3.70;;;22.80;37.10;;;;;;6173209;28;81307;-59
2023/12/04 06:40:32;;;;;;;6.22;4.07;;;22.80;36.90;;;;;;6175837;28;80349;-60
2023/12/04 06:43:32;;;;;;;5.18;3.78;;;22.70;37.40;;;;;;6176107;28;80437;-59
2023/12/04 06:46:34;;;;;;;6.45;3.90;;;22.70;37.10;;;;;;6172612;28;80981;-61
2023/12/04 06:49:34;;;;;;;9.63;4.18;;;22.70;37.50;;;;;;6173279;28;81328;-59
2023/12/04 06:52:34;;;;;;;6.05;3.92;;;22.70;37.30;;;;;;6172781;28;81631;-59
2023/12/04 06:55:35;;;;;;;5.68;3.60;;;22.60;36.80;;;;;;6170796;28;81416;-60
2023/12/04 06:58:35;;;;;;;6.22;3.65;;;22.60;36.70;;;;;;6176485;28;80231;-59
2023/12/04 07:01:36;;;;;;;6.05;3.83;;;22.60;36.70;;;;;;6172988;28;80660;-58
2023/12/04 07:04:36;;;;;;;5.63;3.80;;;22.60;36.20;;;;;;6167923;28;80243;-56
2023/12/04 07:07:37;;;;;;;5.78;3.58;;;22.60;36.30;;;;;;6174397;28;80736;-58
2023/12/04 07:10:37;;;;;;;5.97;3.88;;;22.60;36.70;;;;;;6175753;28;80704;-62
2023/12/04 07:13:38;;;;;;;5.88;3.95;;;22.60;36.50;;;;;;6165621;28;81402;-62
2023/12/04 07:16:39;;;;;;;5.55;3.70;;;22.50;36.50;;;;;;6171815;28;80701;-55
2023/12/04 07:19:39;;;;;;;4.80;3.72;;;22.50;36.60;;;;;;6174998;28;80968;-60
2023/12/04 07:22:40;;;;;;;7.60;4.60;;;22.50;35.90;;;;;;6179782;28;80277;-59
2023/12/04 07:25:41;;;;;;;5.55;4.07;;;22.50;35.80;;;;;;6176753;28;83327;-59
2023/12/04 07:28:41;;;;;;;6.88;4.25;;;22.40;35.40;;;;;;6178010;28;81133;-59
2023/12/04 07:31:42;;;;;;;8.52;4.28;;;22.40;35.10;;;;;;6176573;28;80948;-59
2023/12/04 07:34:42;;;;;;;7.28;4.28;;;22.40;35.10;;;;;;6179769;28;80926;-64
2023/12/04 07:37:43;;;;;;;6.72;4.13;;;22.40;35.10;;;;;;6179104;28;80611;-64
2023/12/04 07:40:43;;;;;;;6.78;4.43;;;22.40;34.90;;;;;;6179087;28;80501;-63
2023/12/04 07:43:44;;;;;;;7.38;4.95;;;22.30;35.10;;;;;;6178991;28;82424;-63
2023/12/04 07:46:44;;;;;;;7.88;4.68;;;22.40;35.30;;;;;;6179413;28;80877;-63
2023/12/04 07:49:45;;;;;;;9.13;5.30;;;22.30;35.10;;;;;;6179913;28;81525;-62
2023/12/04 07:52:45;;;;;;;7.47;4.78;;;22.40;35.10;;;;;;6179967;28;80147;-62
2023/12/04 07:55:48;;;;;;;7.28;4.80;;;22.40;35.40;;;;;;6179120;28;80717;-62
2023/12/04 07:58:48;;;;;;;7.07;4.80;;;22.40;35.40;;;;;;6167061;28;80618;-62
2023/12/04 08:01:49;;;;;;;7.80;4.82;;;22.40;35.10;;;;;;6163795;28;81952;-62
2023/12/04 08:04:49;;;;;;;7.82;4.65;;;22.40;35.60;;;;;;6167759;28;84661;-62
2023/12/04 08:07:50;;;;;;;7.38;5.28;;;22.40;35.70;;;;;;6175322;28;80165;-61
2023/12/04 08:10:50;;;;;;;13.65;5.25;;;22.50;35.40;;;;;;6171386;28;80708;-60
2023/12/04 08:13:51;;;;;;;8.85;5.38;;;22.60;35.60;;;;;;6172072;28;80263;-64
2023/12/04 08:16:51;;;;;;;6.65;4.75;;;22.70;35.70;;;;;;6163680;28;81575;-62
2023/12/04 08:19:52;;;;;;;8.20;5.65;;;22.70;35.90;;;;;;6171494;28;83849;-63
2023/12/04 08:22:52;;;;;;;9.55;5.20;;;22.80;35.60;;;;;;6171875;28;80529;-62
2023/12/04 08:25:52;;;;;;;6.88;4.63;;;22.80;35.70;;;;;;6168959;28;81016;-61
2023/12/04 08:28:53;;;;;;;7.75;4.85;;;22.80;35.50;;;;;;6169306;28;80395;-62
2023/12/04 08:31:53;;;;;;;8.18;5.32;;;22.90;35.70;;;;;;6119204;28;83597;-63
2023/12/04 08:34:54;;;;;;;8.43;5.28;;;23.00;35.50;;;;;;6151260;28;81830;-63
2023/12/04 08:37:55;;;;;;;8.43;5.80;;;23.00;35.00;;;;;;6156222;28;80896;-62
2023/12/04 08:40:55;;;;;;;9.48;6.25;;;23.10;34.80;;;;;;6155933;28;80556;-63
2023/12/04 08:43:56;;;;;;;7.88;5.95;;;23.20;34.80;;;;;;6167599;28;83537;-63
2023/12/04 08:46:57;;;;;;;8.38;5.63;;;23.30;34.90;;;;;;6169540;28;80984;-63
2023/12/04 08:49:58;;;;;;;7.65;4.60;;;23.40;35.10;;;;;;6157248;28;80726;-60
2023/12/04 08:52:58;;;;;;;9.18;5.47;;;23.50;35.20;;;;;;6161895;28;80347;-61
2023/12/04 08:55:59;;;;;;;7.32;5.15;;;23.50;35.20;;;;;;6171330;28;80172;-60
2023/12/04 08:58:59;;;;;;;8.85;5.75;;;23.60;35.20;;;;;;6169030;28;80642;-61
2023/12/04 09:02:03;;;;;;;7.95;4.50;;;23.70;35.10;;;;;;6164335;28;83030;-61
2023/12/04 09:05:04;;;;;;;9.00;5.60;;;23.80;35.00;;;;;;6156362;28;80410;-63
2023/12/04 09:08:04;;;;;;;7.90;4.85;;;23.90;35.00;;;;;;6163622;28;81139;-58
2023/12/04 09:11:04;;;;;;;8.23;5.50;;;24.00;34.90;;;;;;6171858;28;81741;-59
2023/12/04 09:14:05;;;;;;;6.70;4.63;;;24.10;34.80;;;;;;6173541;28;81617;-59
2023/12/04 09:17:05;;;;;;;7.63;4.90;;;24.10;34.70;;;;;;6170689;28;80201;-59
2023/12/04 09:20:06;;;;;;;7.93;5.10;;;24.20;34.70;;;;;;6164980;28;82615;-60
2023/12/04 09:23:06;;;;;;;8.70;5.03;;;24.30;34.60;;;;;;6165830;28;81786;-59
2023/12/04 09:26:07;;;;;;;7.78;5.32;;;24.30;34.60;;;;;;6172415;28;80637;-61
2023/12/04 09:29:08;;;;;;;6.97;5.55;;;24.40;34.60;;;;;;6167183;28;82312;-60
2023/12/04 09:32:10;;;;;;;7.65;5.40;;;24.40;34.50;;;;;;6170564;28;80953;-58
2023/12/04 09:35:10;;;;;;;9.75;4.90;;;24.50;34.60;;;;;;6173784;28;80536;-60
2023/12/04 09:38:10;;;;;;;9.98;5.03;;;24.50;34.70;;;;;;6170861;28;80103;-60
2023/12/04 09:41:12;;;;;;;10.30;5.10;;;24.50;34.50;;;;;;6156290;28;81256;-61
2023/12/04 09:44:12;;;;;;;8.07;5.95;;;24.60;34.50;;;;;;6163951;28;80912;-61
2023/12/04 09:47:13;;;;;;;8.25;5.68;;;24.60;34.50;;;;;;6173196;28;81062;-61
2023/12/04 09:50:13;;;;;;;8.32;5.28;;;24.60;34.60;;;;;;6165916;28;80617;-61
2023/12/04 09:53:14;;;;;;;9.02;5.20;;;24.60;34.90;;;;;;6170956;28;81039;-60
2023/12/04 09:56:14;;;;;;;15.63;5.35;;;24.60;35.00;;;;;;6167614;28;81008;-61
2023/12/04 09:59:14;;;;;;;9.23;5.47;;;24.60;35.20;;;;;;6160720;28;82719;-60
2023/12/04 10:02:15;;;;;;;7.75;5.47;;;24.70;35.50;;;;;;6162015;28;80704;-61
2023/12/04 10:05:15;;;;;;;9.68;5.05;;;24.80;35.50;;;;;;6172510;28;80321;-59
2023/12/04 10:08:17;;;;;;;9.75;5.57;;;24.80;35.40;;;;;;6160022;28;81153;-58
2023/12/04 10:11:17;;;;;;;8.60;5.68;;;24.90;35.50;;;;;;6170546;28;80867;-60
2023/12/04 10:14:18;;;;;;;7.80;4.88;;;25.00;35.50;;;;;;6165886;28;80188;-59
2023/12/04 10:17:18;;;;;;;7.68;4.78;;;25.00;35.40;;;;;;6161551;28;80538;-61
2023/12/04 10:20:20;;;;;;;8.45;5.63;;;25.20;35.20;;;;;;6172136;28;81474;-60
2023/12/04 10:23:21;;;;;;;8.38;5.72;;;25.30;35.10;;;;;;6162639;28;85495;-60
2023/12/04 10:26:21;;;;;;;10.23;4.88;;;25.30;35.00;;;;;;6168478;28;80391;-60
2023/12/04 10:29:22;;;;;;;8.45;5.00;;;25.50;35.00;;;;;;6165732;28;80468;-59
2023/12/04 10:32:22;;;;;;;6.97;4.72;;;25.50;35.00;;;;;;6167409;28;80417;-57
2023/12/04 10:35:23;;;;;;;7.90;5.03;;;25.60;34.90;;;;;;6158000;28;80521;-59
2023/12/04 10:38:23;;;;;;;8.45;5.68;;;25.70;34.90;;;;;;6171351;28;81040;-59
2023/12/04 10:41:24;;;;;;;7.47;5.28;;;25.70;34.80;;;;;;6168160;28;80782;-64
2023/12/04 10:44:24;;;;;;;8.68;5.68;;;25.80;34.80;;;;;;6166024;28;80851;-64
2023/12/04 10:47:25;;;;;;;11.68;6.47;;;25.80;34.80;;;;;;6163746;28;82497;-64
2023/12/04 10:50:25;;;;;;;10.32;5.70;;;25.80;34.70;;;;;;6162868;28;81926;-63
2023/12/04 10:53:26;;;;;;;9.35;5.47;;;25.90;34.70;;;;;;6166534;28;83638;-67
2023/12/04 10:56:27;;;;;;;7.80;5.13;;;25.90;34.70;;;;;;6172390;28;80872;-63
2023/12/04 10:59:28;;;;;;;8.73;5.20;;;25.90;34.50;;;;;;6163834;28;80326;-59
2023/12/04 11:02:29;;;;;;;8.13;5.20;;;25.90;34.50;;;;;;6164135;28;80679;-60
2023/12/04 11:05:29;;;;;;;6.80;5.03;;;26.00;34.50;;;;;;6170143;28;81779;-61
2023/12/04 11:08:30;;;;;;;9.90;5.35;;;26.00;34.50;;;;;;6169827;28;81849;-60
2023/12/04 11:11:33;;;;;;;7.38;5.28;;;26.00;34.40;;;;;;6172706;28;80919;-59
2023/12/04 11:14:34;;;;;;;7.95;4.40;;;26.00;34.40;;;;;;6169632;28;80309;-59
2023/12/04 11:17:34;;;;;;;6.88;4.85;;;26.10;34.40;;;;;;6166572;28;80139;-60
2023/12/04 11:20:35;;;;;;;9.75;5.88;;;26.10;34.20;;;;;;6173965;28;81448;-60
2023/12/04 11:23:36;;;;;;;6.90;4.75;;;26.10;34.30;;;;;;6168687;28;83794;-60
2023/12/04 11:26:36;;;;;;;6.82;5.05;;;26.10;34.00;;;;;;6171528;28;80501;-59
2023/12/04 11:29:37;;;;;;;6.50;4.40;;;26.20;33.90;;;;;;6162013;28;83254;-60
2023/12/04 11:32:37;;;;;;;8.48;5.72;;;26.20;34.00;;;;;;6159347;28;82747;-60
2023/12/04 11:35:38;;;;;;;7.78;5.50;;;26.20;33.60;;;;;;6156525;28;80617;-63
2023/12/04 11:38:39;;;;;;;8.38;5.28;;;26.30;33.60;;;;;;6171492;28;82291;-64
2023/12/04 11:41:39;;;;;;;7.95;5.15;;;26.30;33.60;;;;;;6161754;28;80550;-63
2023/12/04 11:44:40;;;;;;;8.32;5.47;;;26.30;33.40;;;;;;6167189;28;81153;-64
2023/12/04 11:47:41;;;;;;;9.05;5.13;;;26.40;33.50;;;;;;6171822;28;81686;-64
2023/12/04 11:50:41;;;;;;;7.97;5.10;;;26.40;33.20;;;;;;6163783;28;80448;-63
2023/12/04 11:53:43;;;;;;;7.32;4.93;;;26.50;33.20;;;;;;6164936;28;80735;-60
2023/12/04 11:56:43;;;;;;;6.72;4.97;;;26.50;33.70;;;;;;6168007;28;80511;-59
2023/12/04 11:59:44;;;;;;;7.82;5.05;;;26.60;33.10;;;;;;6160236;28;81261;-58
2023/12/04 12:02:45;;;;;;;9.98;5.15;;;26.60;33.00;;;;;;6164787;28;80695;-59
2023/12/04 12:05:45;;;;;;;6.90;4.90;;;26.70;33.10;;;;;;6175208;28;81862;-59
2023/12/04 12:08:46;;;;;;;8.73;4.90;;;26.70;33.10;;;;;;6171822;28;80560;-59
2023/12/04 12:11:46;;;;;;;7.68;5.28;;;26.70;32.90;;;;;;6173665;28;80586;-58
2023/12/04 12:14:47;;;;;;;8.57;6.00;;;26.70;32.90;;;;;;6166276;28;80412;-60
2023/12/04 12:17:48;;;;;;;7.32;5.15;;;26.70;32.80;;;;;;6172650;28;81011;-59
2023/12/04 12:20:49;;;;;;;9.27;5.15;;;26.80;32.70;;;;;;6170363;28;83443;-58
2023/12/04 12:23:49;;;;;;;11.07;5.97;;;26.80;32.90;;;;;;6169042;28;80698;-60
2023/12/04 12:26:50;;;;;;;9.07;5.03;;;26.80;32.80;;;;;;6166732;28;82318;-59
2023/12/04 12:29:50;;;;;;;6.55;4.95;;;26.80;32.90;;;;;;6174736;28;81356;-62
2023/12/04 12:32:51;;;;;;;7.10;4.88;;;26.80;32.90;;;;;;6173987;28;80229;-60
2023/12/04 12:35:52;;;;;;;7.00;4.97;;;26.80;32.70;;;;;;6161676;28;82655;-60
2023/12/04 12:38:52;;;;;;;7.60;5.10;;;26.90;32.80;;;;;;6171603;28;83712;-60
2023/12/04 12:41:53;;;;;;;7.97;5.80;;;26.90;32.80;;;;;;6162322;28;80738;-61
2023/12/04 12:44:55;;;;;;;9.85;4.78;;;26.90;32.60;;;;;;6166472;28;82018;-60
2023/12/04 12:47:55;;;;;;;8.23;5.13;;;26.90;33.00;;;;;;6172350;28;81053;-60
2023/12/04 12:50:56;;;;;;;6.22;4.82;;;26.90;33.20;;;;;;6172167;28;80418;-60
2023/12/04 12:53:56;;;;;;;10.15;5.40;;;26.90;32.90;;;;;;6173373;28;80683;-61
2023/12/04 12:56:57;;;;;;;5.40;4.30;;;26.90;33.20;;;;;;6166616;28;81051;-59
2023/12/04 12:59:57;;;;;;;5.72;4.30;;;26.90;33.20;;;;;;6173447;28;81908;-60
2023/12/04 13:02:58;;;;;;;7.85;5.10;;;26.80;33.20;;;;;;6165035;28;81763;-61
2023/12/04 13:05:58;;;;;;;6.50;4.70;;;26.80;33.40;;;;;;6173378;28;80016;-60
2023/12/04 13:08:59;;;;;;;6.72;5.00;;;26.80;33.30;;;;;;6169157;28;80486;-61
2023/12/04 13:12:02;;;;;;;6.47;4.68;;;26.70;33.10;;;;;;6167833;28;80317;-60
2023/12/04 13:15:03;;;;;;;7.45;4.72;;;26.60;33.30;;;;;;6162961;28;81034;-61
2023/12/04 13:18:03;;;;;;;6.03;4.90;;;26.50;33.30;;;;;;6171412;28;80751;-59
2023/12/04 13:21:04;;;;;;;7.30;5.13;;;26.40;33.30;;;;;;6176011;28;81948;-60
2023/12/04 13:24:07;;;;;;;7.30;5.20;;;26.20;33.20;;;;;;6169000;28;81197;-60
2023/12/04 13:27:08;;;;;;;6.97;4.95;;;25.90;33.40;;;;;;6168862;28;80408;-60
2023/12/04 13:30:08;;;;;;;7.95;4.78;;;25.70;33.20;;;;;;6165491;28;80821;-61
2023/12/04 13:33:09;;;;;;;7.28;4.78;;;25.50;33.40;;;;;;6174540;28;80912;-62
2023/12/04 13:36:09;;;;;;;7.57;4.50;;;25.30;33.40;;;;;;6174631;28;80552;-60
2023/12/04 13:39:16;;;;;;;8.18;5.45;;;25.20;33.60;;;;;;6175219;28;84368;-60
2023/12/04 13:45:36;;;;;;;7.75;4.88;;;24.90;33.60;;;;;;6174687;28;81392;-61
2023/12/04 13:48:40;;;;;;;8.20;5.60;;;24.80;33.60;;;;;;6174234;28;80664;-60
2023/12/04 13:51:40;;;;;;;10.95;5.82;;;24.70;33.70;;;;;;6174614;28;81628;-64
2023/12/04 13:54:47;;;;;;;8.23;5.50;;;24.50;33.60;;;;;;6175021;28;83405;-60
2023/12/04 13:58:10;;;;;;;8.63;5.65;;;24.50;34.20;;;;;;6172630;28;80481;-60
2023/12/04 14:01:13;;;;;;;8.05;5.68;;;24.40;34.10;;;;;;6155456;28;82775;-60
2023/12/04 14:04:14;;;;;;;7.78;5.55;;;24.30;34.10;;;;;;6174062;28;80937;-60
2023/12/04 14:07:15;;;;;;;9.55;5.95;;;24.20;34.10;;;;;;6174198;28;80441;-62
2023/12/04 14:10:16;;;;;;;10.45;6.65;;;24.10;34.20;;;;;;6173734;28;81497;-62
2023/12/04 14:13:16;;;;;;;8.70;5.75;;;24.10;34.10;;;;;;6171980;28;80981;-59
2023/12/04 14:16:17;;;;;;;10.20;6.65;;;24.00;34.10;;;;;;6176458;28;81928;-63
2023/12/04 14:19:20;;;;;;;10.95;6.57;;;24.00;34.00;;;;;;6176391;28;81512;-62
2023/12/04 14:22:21;;;;;;;9.55;6.35;;;23.90;33.90;;;;;;6173014;28;80970;-62
2023/12/04 14:25:21;;;;;;;9.85;6.10;;;23.80;33.90;;;;;;6171389;28;80771;-61
2023/12/04 14:28:22;;;;;;;10.13;6.30;;;23.80;33.90;;;;;;6175031;28;80631;-62
2023/12/04 14:31:22;;;;;;;10.10;7.07;;;23.70;33.70;;;;;;6173107;28;80551;-60
2023/12/04 14:34:23;;;;;;;12.52;7.28;;;23.60;33.70;;;;;;6174499;28;80641;-61
2023/12/04 14:37:23;;;;;;;14.35;7.15;;;23.60;33.70;;;;;;6175954;28;81831;-60
2023/12/04 14:40:24;;;;;;;9.88;6.15;;;23.60;33.60;;;;;;6174242;28;83616;-62
2023/12/04 14:43:24;;;;;;;11.57;7.50;;;23.50;33.60;;;;;;6170187;28;81393;-62
2023/12/04 14:46:25;;;;;;;11.15;7.38;;;23.50;33.60;;;;;;6175255;28;80486;-63
2023/12/04 14:49:25;;;;;;;11.65;7.85;;;23.50;33.60;;;;;;6175619;28;80729;-62
2023/12/04 14:52:28;;;;;;;12.65;7.90;;;23.50;33.60;;;;;;6175747;28;81878;-63
2023/12/04 14:56:22;;;;;;;12.95;8.00;;;23.50;33.50;;;;;;6171288;28;81197;-63
2023/12/04 14:59:18;;;;;;;13.40;7.82;;;23.50;33.50;;;;;;6172801;28;80672;-64
2023/12/04 15:15:39;;;;;;;16.60;10.23;;;23.60;33.60;;;;;;6150428;28;80964;-61
2023/12/04 15:21:53;;;;;;;17.10;10.38;;;23.70;33.80;;;;;;6143749;28;82941;-63
2023/12/04 15:24:53;;;;;;;15.90;10.77;;;23.70;34.50;;;;;;6146357;28;84597;-60
2023/12/04 15:27:54;;;;;;;17.65;10.90;;;23.70;33.70;;;;;;6147189;28;83399;-62
2023/12/04 15:30:58;;;;;;;16.25;10.57;;;23.80;33.60;;;;;;6138958;28;83256;-60
2023/12/04 15:33:58;;;;;;;18.40;11.45;;;23.80;33.80;;;;;;6146835;28;83366;-60
2023/12/04 15:36:59;;;;;;;18.20;11.20;;;23.80;34.00;;;;;;6146655;28;83267;-61
2023/12/04 15:39:59;;;;;;;21.75;11.07;;;23.80;34.20;;;;;;6144395;28;85730;-60
2023/12/04 15:43:01;;;;;;;17.70;10.65;;;23.80;34.30;;;;;;6150455;28;83917;-60
2023/12/04 15:46:01;;;;;;;19.45;11.98;;;23.80;34.60;;;;;;6149499;28;83088;-60
2023/12/04 15:49:03;;;;;;;18.50;11.90;;;23.80;34.80;;;;;;6148480;28;83152;-60
2023/12/04 15:52:03;;;;;;;17.15;10.75;;;23.80;35.00;;;;;;6147589;28;83338;-59
2023/12/04 15:55:04;;;;;;;22.95;11.48;;;23.80;35.00;;;;;;6142169;28;83270;-59
2023/12/04 15:58:04;;;;;;;17.05;11.20;;;23.80;35.10;;;;;;6163310;28;83725;-59